createdAt,value
2019-04-26T00:02:05.813Z,16.25
2019-04-26T00:04:37.421Z,14.45
2019-04-26T00:07:09.673Z,15.70
2019-04-26T00:09:42.009Z,14.13
2019-04-26T00:12:23.757Z,14.05
2019-04-26T00:15:13.096Z,14.23
2019-04-26T00:17:49.846Z,13.62
2019-04-26T00:20:21.951Z,14.05
2019-04-26T00:22:53.565Z,13.88
2019-04-26T00:25:24.908Z,13.80
2019-04-26T00:27:56.462Z,11.83
2019-04-26T00:30:27.948Z,13.70
2019-04-26T00:32:59.383Z,13.53
2019-04-26T00:35:30.913Z,13.55
2019-04-26T00:38:02.158Z,13.25
2019-04-26T00:40:33.404Z,13.43
2019-04-26T00:43:04.647Z,13.43
2019-04-26T00:45:36.075Z,13.78
2019-04-26T00:48:07.757Z,13.35
2019-04-26T00:50:39.304Z,13.22
2019-04-26T00:53:10.695Z,13.28
2019-04-26T00:55:41.746Z,14.50
2019-04-26T00:58:13.698Z,13.15
2019-04-26T01:00:46.027Z,13.65
2019-04-26T01:03:17.156Z,14.90
2019-04-26T01:05:59.596Z,12.25
2019-04-26T01:08:21.916Z,14.50
2019-04-26T01:10:53.362Z,14.85
2019-04-26T01:13:26.114Z,14.55
2019-04-26T01:15:57.599Z,13.50
2019-04-26T01:18:28.841Z,15.20
2019-04-26T01:21:00.598Z,15.18
2019-04-26T01:23:33.380Z,14.03
2019-04-26T01:26:25.192Z,14.70
2019-04-26T01:29:09.148Z,14.23
2019-04-26T01:32:01.901Z,15.00
2019-04-26T01:34:33.450Z,15.32
2019-04-26T01:37:05.208Z,16.15
2019-04-26T01:39:38.568Z,16.90
2019-04-26T01:42:17.835Z,16.02
2019-04-26T01:44:58.403Z,16.42
2019-04-26T01:47:29.941Z,16.32
2019-04-26T01:50:01.488Z,16.20
2019-04-26T01:52:33.162Z,15.18
2019-04-26T01:55:07.104Z,15.85
2019-04-26T01:57:38.311Z,16.85
2019-04-26T02:00:11.438Z,15.35
2019-04-26T02:02:44.797Z,14.50
2019-04-26T02:05:22.395Z,15.85
2019-04-26T02:07:53.738Z,17.52
2019-04-26T02:10:26.568Z,16.40
2019-04-26T02:12:57.865Z,20.27
2019-04-26T02:15:31.290Z,19.32
2019-04-26T02:18:02.918Z,18.80
2019-04-26T02:20:54.518Z,19.52
2019-04-26T02:23:27.965Z,17.15
2019-04-26T02:26:00.988Z,17.05
2019-04-26T02:28:32.882Z,18.30
2019-04-26T02:31:04.342Z,21.33
2019-04-26T02:33:36.791Z,18.30
2019-04-26T02:36:07.895Z,19.30
2019-04-26T02:38:39.405Z,18.07
2019-04-26T02:41:10.551Z,18.02
2019-04-26T02:43:42.585Z,18.12
2019-04-26T02:46:16.718Z,18.32
2019-04-26T02:48:53.210Z,18.62
2019-04-26T02:51:29.147Z,20.75
2019-04-26T02:54:04.893Z,17.52
2019-04-26T02:59:31.729Z,20.72
2019-04-26T03:02:04.915Z,20.32
2019-04-26T03:04:38.021Z,22.10
2019-04-26T03:07:12.874Z,20.48
2019-04-26T03:09:45.236Z,19.65
2019-04-26T03:12:16.328Z,19.40
2019-04-26T03:15:12.695Z,19.02
2019-04-26T03:17:38.144Z,19.40
2019-04-26T03:20:16.542Z,18.27
2019-04-26T03:23:19.915Z,17.87
2019-04-26T03:26:18.415Z,18.20
2019-04-26T03:29:02.009Z,18.42
2019-04-26T03:31:54.310Z,19.25
2019-04-26T03:34:34.359Z,17.90
2019-04-26T03:37:40.541Z,19.62
2019-04-26T03:40:33.933Z,19.60
2019-04-26T03:43:35.026Z,18.02
2019-04-26T03:46:29.831Z,18.00
2019-04-26T03:49:36.185Z,16.57
2019-04-26T03:52:28.827Z,16.45
2019-04-26T03:55:24.865Z,16.50
2019-04-26T03:58:07.976Z,16.95
2019-04-26T04:00:57.598Z,14.68
2019-04-26T04:03:39.281Z,14.83
2019-04-26T04:06:10.808Z,15.00
2019-04-26T04:08:48.242Z,13.88
2019-04-26T04:11:22.573Z,12.55
2019-04-26T04:14:07.193Z,12.47
2019-04-26T04:16:47.353Z,13.85
2019-04-26T04:20:06.893Z,12.98
2019-04-26T04:22:47.858Z,12.33
2019-04-26T04:25:32.523Z,13.35
2019-04-26T04:28:06.948Z,13.32
2019-04-26T04:30:50.211Z,13.08
2019-04-26T04:33:29.021Z,14.15
2019-04-26T04:36:04.831Z,13.38
2019-04-26T04:38:49.692Z,14.13
2019-04-26T04:41:53.409Z,14.28
2019-04-26T04:44:33.198Z,14.53
2019-04-26T04:47:25.074Z,15.63
2019-04-26T04:50:10.418Z,15.65
2019-04-26T04:53:04.567Z,15.30
2019-04-26T04:55:50.136Z,15.15
2019-04-26T04:58:38.528Z,13.75
2019-04-26T05:01:20.011Z,14.40
2019-04-26T05:03:57.777Z,16.50
2019-04-26T05:06:54.507Z,15.68
2019-04-26T05:09:36.215Z,14.78
2019-04-26T05:12:20.857Z,13.90
2019-04-26T05:15:19.141Z,15.00
2019-04-26T05:18:17.651Z,14.73
2019-04-26T05:21:03.525Z,15.93
2019-04-26T05:23:55.168Z,14.45
2019-04-26T05:27:03.749Z,16.02
2019-04-26T05:29:58.149Z,16.60
2019-04-26T05:32:52.722Z,22.27
2019-04-26T05:35:57.341Z,22.95
2019-04-26T05:39:06.708Z,22.65
2019-04-26T05:41:57.849Z,25.52
2019-04-26T05:45:28.897Z,26.80
2019-04-26T05:48:43.917Z,27.00
2019-04-26T05:51:39.881Z,30.35
2019-04-26T05:54:22.716Z,28.80
2019-04-26T05:57:02.672Z,29.00
2019-04-26T06:00:01.324Z,30.87
2019-04-26T06:03:12.087Z,30.00
2019-04-26T06:06:23.294Z,29.65
2019-04-26T06:09:23.076Z,31.23
2019-04-26T06:12:12.383Z,29.98
2019-04-26T06:15:04.575Z,31.33
2019-04-26T06:18:04.795Z,30.77
2019-04-26T06:20:47.795Z,25.95
2019-04-26T06:23:41.387Z,25.50
2019-04-26T06:32:17.294Z,23.57
2019-04-26T06:35:08.594Z,21.30
2019-04-26T06:38:00.218Z,20.27
2019-04-26T06:41:08.746Z,19.30
2019-04-26T06:43:43.666Z,19.55
2019-04-26T06:46:47.574Z,21.52
2019-04-26T06:49:33.329Z,20.95
2019-04-26T06:52:15.572Z,20.70
2019-04-26T06:54:51.423Z,18.35
2019-04-26T06:58:02.879Z,18.17
2019-04-26T07:01:06.698Z,19.90
2019-04-26T07:04:08.530Z,19.60
2019-04-26T07:06:50.289Z,17.17
2019-04-26T07:09:31.852Z,16.67
2019-04-26T07:12:28.756Z,18.60
2019-04-26T07:15:29.747Z,16.55
2019-04-26T07:18:37.498Z,15.05
2019-04-26T07:21:20.167Z,13.88
2019-04-26T07:24:20.103Z,18.00
2019-04-26T07:27:26.210Z,18.27
2019-04-26T07:30:21.887Z,17.23
2019-04-26T07:33:01.464Z,12.13
2019-04-26T07:36:12.377Z,15.98
2019-04-26T07:39:19.411Z,12.40
2019-04-26T07:42:03.245Z,11.10
2019-04-26T07:44:51.337Z,10.60
2019-04-26T07:47:36.307Z,10.65
2019-04-26T07:50:54.004Z,11.30
2019-04-26T07:53:54.153Z,11.12
2019-04-26T07:56:48.904Z,10.88
2019-04-26T07:59:43.272Z,9.95
2019-04-26T08:02:25.926Z,9.98
2019-04-26T08:05:04.748Z,11.05
2019-04-26T08:07:43.548Z,9.68
2019-04-26T08:10:21.308Z,9.60
2019-04-26T08:13:15.892Z,9.83
2019-04-26T08:16:06.849Z,10.60
2019-04-26T08:19:02.599Z,10.03
2019-04-26T08:21:48.114Z,9.90
2019-04-26T08:24:22.424Z,12.47
2019-04-26T08:27:18.641Z,11.43
2019-04-26T08:29:50.198Z,11.78
2019-04-26T08:32:22.994Z,12.50
2019-04-26T08:34:58.242Z,11.30
2019-04-26T08:37:37.990Z,11.83
2019-04-26T08:40:28.075Z,10.85
2019-04-26T08:42:58.777Z,11.00
2019-04-26T08:46:01.679Z,11.60
2019-04-26T08:48:36.413Z,10.88
2019-04-26T08:53:54.316Z,10.80
2019-04-26T08:56:38.234Z,11.95
2019-04-26T08:59:20.156Z,11.10
2019-04-26T09:02:31.129Z,13.00
2019-04-26T09:05:25.863Z,13.50
2019-04-26T09:08:00.179Z,12.33
2019-04-26T09:10:32.109Z,11.73
2019-04-26T09:13:24.316Z,10.93
2019-04-26T09:16:03.814Z,11.15
2019-04-26T09:18:48.469Z,11.18
2019-04-26T09:21:19.258Z,10.58
2019-04-26T09:23:55.189Z,11.05
2019-04-26T09:26:42.453Z,10.60
2019-04-26T09:29:30.531Z,10.30
2019-04-26T09:32:13.850Z,11.18
2019-04-26T09:34:48.618Z,10.88
2019-04-26T09:37:24.466Z,12.07
2019-04-26T09:40:10.536Z,12.45
2019-04-26T09:42:59.702Z,12.13
2019-04-26T09:45:38.035Z,13.40
2019-04-26T09:48:14.061Z,13.70
2019-04-26T09:50:47.871Z,12.95
2019-04-26T09:53:19.519Z,14.25
2019-04-26T09:56:00.910Z,12.40
2019-04-26T09:58:32.563Z,12.43
2019-04-26T10:01:06.217Z,13.80
2019-04-26T10:03:38.527Z,12.95
2019-04-26T10:06:11.823Z,12.40
2019-04-26T10:08:55.553Z,12.60
2019-04-26T10:11:43.599Z,11.35
2019-04-26T10:14:30.969Z,12.80
2019-04-26T10:17:17.523Z,11.10
2019-04-26T10:20:07.090Z,11.55
2019-04-26T10:22:41.311Z,12.00
2019-04-26T10:25:28.347Z,12.50
2019-04-26T10:28:03.156Z,12.68
2019-04-26T10:30:45.363Z,12.25
2019-04-26T10:33:25.652Z,13.48
2019-04-26T10:36:00.242Z,13.10
2019-04-26T10:38:35.490Z,12.85
2019-04-26T10:41:08.462Z,12.88
2019-04-26T10:43:44.626Z,12.58
2019-04-26T10:48:52.859Z,12.95
2019-04-26T10:51:38.615Z,14.13
2019-04-26T10:54:17.655Z,13.35
2019-04-26T10:56:51.059Z,13.53
2019-04-26T10:59:28.058Z,13.75
2019-04-26T11:02:04.855Z,13.32
2019-04-26T11:04:41.347Z,13.03
2019-04-26T11:07:21.236Z,12.50
2019-04-26T11:10:02.878Z,12.80
2019-04-26T11:12:44.826Z,12.07
2019-04-26T11:15:20.570Z,13.15
2019-04-26T11:17:53.180Z,12.07
2019-04-26T11:20:26.435Z,12.05
2019-04-26T11:23:11.790Z,12.30
2019-04-26T11:25:42.956Z,12.05
2019-04-26T11:28:21.224Z,12.35
2019-04-26T11:30:57.320Z,12.43
2019-04-26T11:33:27.160Z,11.75
2019-04-26T11:35:58.790Z,12.30
2019-04-26T11:38:40.895Z,11.75
2019-04-26T11:41:13.197Z,12.13
2019-04-26T11:44:01.299Z,11.88
2019-04-26T11:46:50.813Z,12.70
2019-04-26T11:49:22.447Z,11.88
2019-04-26T11:51:58.582Z,12.75
2019-04-26T11:54:32.804Z,12.03
2019-04-26T11:57:04.159Z,12.25
2019-04-26T11:59:35.907Z,12.75
2019-04-26T12:02:16.174Z,11.75
2019-04-26T12:04:53.613Z,11.88
2019-04-26T12:07:29.301Z,11.90
2019-04-26T12:10:09.882Z,12.05
2019-04-26T12:12:43.135Z,11.35
2019-04-26T12:15:15.515Z,20.20
2019-04-26T12:17:58.094Z,13.03
2019-04-26T12:20:29.464Z,11.93
2019-04-26T12:23:02.932Z,11.63
2019-04-26T12:25:48.100Z,11.25
2019-04-26T12:28:17.767Z,11.43
2019-04-26T12:30:58.441Z,11.43
2019-04-26T12:33:46.999Z,12.30
2019-04-26T12:36:25.413Z,12.15
2019-04-26T12:39:02.223Z,12.20
2019-04-26T12:41:40.746Z,11.10
2019-04-26T12:44:13.054Z,11.28
2019-04-26T12:46:59.389Z,10.48
2019-04-26T12:49:30.935Z,11.20
2019-04-26T12:52:12.496Z,9.35
2019-04-26T12:54:57.663Z,9.28
2019-04-26T12:57:32.194Z,8.90
2019-04-26T13:00:06.610Z,8.85
2019-04-26T13:02:38.267Z,9.60
2019-04-26T13:05:14.525Z,9.10
2019-04-26T13:07:46.593Z,9.15
2019-04-26T13:10:31.285Z,9.45
2019-04-26T13:13:10.478Z,8.63
2019-04-26T13:16:05.328Z,9.03
2019-04-26T13:18:41.095Z,8.90
2019-04-26T13:21:17.432Z,8.35
2019-04-26T13:24:07.481Z,8.90
2019-04-26T13:26:41.185Z,9.45
2019-04-26T13:29:12.508Z,9.03
2019-04-26T13:31:59.476Z,9.13
2019-04-26T13:34:33.244Z,8.78
2019-04-26T13:37:07.587Z,12.35
2019-04-26T13:39:41.439Z,8.55
2019-04-26T13:42:18.698Z,8.43
2019-04-26T13:45:00.462Z,8.30
2019-04-26T13:47:45.860Z,9.10
2019-04-26T13:50:28.355Z,8.05
2019-04-26T13:53:01.934Z,8.95
2019-04-26T13:55:33.871Z,8.58
2019-04-26T13:58:06.345Z,8.30
2019-04-26T14:00:39.739Z,10.28
2019-04-26T14:03:11.627Z,10.23
2019-04-26T14:05:46.661Z,8.63
2019-04-26T14:08:18.830Z,9.95
2019-04-26T14:10:52.123Z,8.83
2019-04-26T14:13:24.892Z,9.45
2019-04-26T14:15:58.706Z,8.78
2019-04-26T14:18:41.152Z,8.93
2019-04-26T14:23:53.030Z,9.03
2019-04-26T14:26:28.214Z,9.05
2019-04-26T14:28:59.858Z,8.45
2019-04-26T14:31:37.725Z,8.75
2019-04-26T14:34:11.962Z,8.75
2019-04-26T14:36:51.271Z,8.55
2019-04-26T14:39:35.118Z,9.58
2019-04-26T14:41:58.943Z,8.75
2019-04-26T14:44:31.232Z,8.70
2019-04-26T14:47:13.806Z,8.20
2019-04-26T14:49:39.235Z,8.15
2019-04-26T14:52:10.396Z,8.07
2019-04-26T14:54:46.055Z,7.80
2019-04-26T14:57:26.653Z,8.75
2019-04-26T14:59:57.672Z,8.18
2019-04-26T15:02:41.595Z,8.63
2019-04-26T15:05:18.694Z,8.08
2019-04-26T15:08:05.395Z,8.95
2019-04-26T15:13:17.961Z,7.87
2019-04-26T15:15:46.819Z,8.15
2019-04-26T15:18:22.381Z,8.58
2019-04-26T15:20:57.115Z,8.18
2019-04-26T15:23:29.920Z,8.38
2019-04-26T15:26:05.011Z,8.55
2019-04-26T15:28:43.700Z,8.78
2019-04-26T15:31:13.140Z,8.23
2019-04-26T15:33:50.077Z,7.80
2019-04-26T15:36:25.022Z,9.00
2019-04-26T15:38:59.968Z,10.20
2019-04-26T15:41:47.080Z,10.70
2019-04-26T15:44:32.762Z,11.65
2019-04-26T15:47:07.190Z,8.13
2019-04-26T15:49:50.007Z,11.22
2019-04-26T15:52:26.373Z,11.25
2019-04-26T15:54:59.097Z,10.58
2019-04-26T15:57:34.962Z,10.95
2019-04-26T16:00:07.524Z,11.03
2019-04-26T16:02:42.581Z,10.63
2019-04-26T16:05:13.048Z,11.38
2019-04-26T16:07:44.284Z,12.63
2019-04-26T16:10:17.609Z,10.43
2019-04-26T16:12:49.076Z,10.10
2019-04-26T16:15:20.581Z,10.30
2019-04-26T16:17:52.279Z,11.10
2019-04-26T16:20:31.649Z,10.45
2019-04-26T16:23:06.299Z,10.05
2019-04-26T16:25:38.409Z,11.08
2019-04-26T16:28:25.686Z,10.03
2019-04-26T16:34:06.649Z,10.63
2019-04-26T16:36:36.490Z,11.15
2019-04-26T16:39:12.963Z,10.03
2019-04-26T16:41:44.856Z,10.85
2019-04-26T16:44:30.137Z,10.20
2019-04-26T16:47:01.276Z,8.80
2019-04-26T16:49:35.096Z,10.30
2019-04-26T16:52:14.710Z,10.15
2019-04-26T16:54:53.044Z,9.23
2019-04-26T16:57:43.900Z,9.65
2019-04-26T17:00:15.059Z,11.10
2019-04-26T17:00:31.750Z,10.40
2019-04-26T17:02:47.356Z,11.00
2019-04-26T17:05:45.501Z,10.25
2019-04-26T17:08:05.131Z,11.18
2019-04-26T17:10:37.974Z,11.10
2019-04-26T17:13:10.821Z,10.72
2019-04-26T17:15:43.004Z,9.93
2019-04-26T17:20:50.178Z,11.22
2019-04-26T17:23:40.176Z,12.43
2019-04-26T17:26:29.005Z,14.90
2019-04-26T17:29:16.769Z,15.58
2019-04-26T17:31:48.832Z,21.15
2019-04-26T17:34:24.062Z,17.00
2019-04-26T17:36:55.340Z,22.60
2019-04-26T17:39:31.782Z,18.67
2019-04-26T17:42:05.175Z,16.80
2019-04-26T17:44:41.648Z,16.27
2019-04-26T17:47:15.346Z,17.42
2019-04-26T17:49:50.167Z,16.62
2019-04-26T17:52:36.052Z,15.18
2019-04-26T17:55:07.857Z,17.05
2019-04-26T17:57:43.531Z,14.28
2019-04-26T18:00:26.758Z,15.90
2019-04-26T18:02:55.236Z,13.55
2019-04-26T18:05:55.841Z,13.28
2019-04-26T18:08:33.870Z,15.80
2019-04-26T18:11:03.420Z,14.87
2019-04-26T18:13:47.248Z,13.53
2019-04-26T18:16:39.407Z,15.40
2019-04-26T18:19:30.216Z,14.38
2019-04-26T18:22:04.986Z,16.80
2019-04-26T18:24:45.494Z,17.30
2019-04-26T18:27:24.689Z,17.35
2019-04-26T18:30:10.335Z,17.25
2019-04-26T18:32:48.047Z,19.07
2019-04-26T18:35:21.088Z,18.10
2019-04-26T18:38:03.694Z,16.57
2019-04-26T18:40:56.540Z,16.20
2019-04-26T18:43:27.488Z,17.10
2019-04-26T18:46:10.148Z,18.10
2019-04-26T18:48:42.545Z,18.20
2019-04-26T18:51:33.403Z,15.53
2019-04-26T18:54:09.330Z,16.65
2019-04-26T18:56:40.978Z,16.20
2019-04-26T18:59:15.441Z,15.90
2019-04-26T19:01:48.301Z,12.73
2019-04-26T19:04:20.068Z,12.80
2019-04-26T19:06:51.194Z,13.95
2019-04-26T19:09:24.454Z,14.03
2019-04-26T19:11:56.212Z,14.33
2019-04-26T19:14:29.072Z,15.23
2019-04-26T19:17:05.004Z,15.60
2019-04-26T19:19:44.324Z,14.38
2019-04-26T19:22:17.085Z,13.50
2019-04-26T19:24:49.404Z,13.60
2019-04-26T19:27:26.683Z,14.10
2019-04-26T19:29:54.788Z,13.15
2019-04-26T19:32:26.583Z,12.58
2019-04-26T19:35:00.727Z,12.82
2019-04-26T19:37:36.655Z,13.18
2019-04-26T19:40:09.047Z,12.78
2019-04-26T19:42:39.861Z,11.43
2019-04-26T19:45:18.968Z,12.40
2019-04-26T19:47:52.068Z,11.60
2019-04-26T19:50:42.026Z,11.40
2019-04-26T19:53:16.593Z,11.93
2019-04-26T19:56:05.237Z,11.45
2019-04-26T19:58:38.223Z,13.22
2019-04-26T20:01:09.776Z,13.03
2019-04-26T20:03:43.112Z,12.25
2019-04-26T20:06:18.765Z,11.17
2019-04-26T20:08:49.662Z,11.83
2019-04-26T20:11:22.025Z,11.53
2019-04-26T20:13:55.288Z,11.33
2019-04-26T20:16:26.572Z,11.97
2019-04-26T20:18:58.219Z,11.28
2019-04-26T20:21:32.072Z,11.08
2019-04-26T20:24:03.173Z,11.28
2019-04-26T20:26:37.471Z,9.58
2019-04-26T20:29:10.209Z,10.82
2019-04-26T20:31:47.763Z,10.90
2019-04-26T20:34:18.850Z,9.30
2019-04-26T20:36:52.028Z,11.30
2019-04-26T20:39:24.069Z,10.18
2019-04-26T20:42:01.983Z,9.33
2019-04-26T20:44:31.619Z,11.43
2019-04-26T20:47:03.308Z,11.33
2019-04-26T20:49:47.214Z,8.95
2019-04-26T20:52:07.768Z,9.03
2019-04-26T20:54:38.895Z,8.53
2019-04-26T20:57:12.314Z,9.15
2019-04-26T20:59:43.535Z,8.20
2019-04-26T21:02:16.345Z,9.23
2019-04-26T21:04:47.880Z,9.78
2019-04-26T21:07:19.424Z,9.13
2019-04-26T21:09:50.732Z,8.73
2019-04-26T21:12:22.427Z,8.35
2019-04-26T21:14:53.757Z,8.83
2019-04-26T21:17:27.725Z,8.98
2019-04-26T21:19:58.690Z,10.05
2019-04-26T21:22:31.663Z,9.10
2019-04-26T21:25:04.867Z,9.93
2019-04-26T21:27:43.070Z,10.10
2019-04-26T21:30:22.442Z,8.98
2019-04-26T21:32:59.289Z,9.78
2019-04-26T21:35:32.410Z,10.35
2019-04-26T21:38:08.208Z,10.58
2019-04-26T21:40:41.039Z,10.35
2019-04-26T21:43:12.593Z,11.43
2019-04-26T21:45:44.247Z,10.40
2019-04-26T21:48:18.238Z,11.00
2019-04-26T21:50:48.992Z,10.55
2019-04-26T21:53:20.420Z,10.48
2019-04-26T21:55:51.991Z,9.95
2019-04-26T21:58:24.657Z,9.58
2019-04-26T22:01:04.408Z,10.72
2019-04-26T22:03:36.581Z,10.35
2019-04-26T22:06:07.724Z,10.48
2019-04-26T22:08:40.507Z,9.35
2019-04-26T22:11:13.991Z,8.80
2019-04-26T22:13:50.641Z,9.43
2019-04-26T22:16:40.346Z,9.78
2019-04-26T22:19:14.640Z,9.35
2019-04-26T22:21:47.658Z,9.73
2019-04-26T22:24:23.622Z,9.60
2019-04-26T22:26:54.657Z,9.43
2019-04-26T22:29:26.513Z,8.75
2019-04-26T22:31:57.967Z,8.48
2019-04-26T22:34:29.569Z,8.13
2019-04-26T22:37:01.816Z,8.03
2019-04-26T22:39:39.772Z,8.08
2019-04-26T22:42:08.782Z,8.25
2019-04-26T22:44:43.607Z,7.72
2019-04-26T22:47:19.028Z,7.30
2019-04-26T22:49:51.121Z,8.08
2019-04-26T22:52:23.089Z,7.65
2019-04-26T22:54:54.839Z,8.13
2019-04-26T22:57:25.998Z,7.87
2019-04-26T22:59:57.537Z,7.28
2019-04-26T23:02:28.897Z,7.80
2019-04-26T23:05:02.029Z,6.97
2019-04-26T23:07:33.632Z,7.83
2019-04-26T23:10:07.381Z,7.67
2019-04-26T23:13:04.520Z,6.55
2019-04-26T23:15:33.302Z,7.20
2019-04-26T23:18:08.204Z,6.28
2019-04-26T23:20:42.658Z,6.47
2019-04-26T23:23:14.372Z,6.17
2019-04-26T23:25:45.620Z,6.00
2019-04-26T23:28:17.273Z,5.97
2019-04-26T23:30:48.762Z,5.67
2019-04-26T23:33:20.588Z,5.62
2019-04-26T23:35:53.019Z,5.72
2019-04-26T23:38:24.211Z,5.53
2019-04-26T23:40:57.192Z,6.65
2019-04-26T23:43:28.843Z,6.05
2019-04-26T23:46:00.306Z,4.97
2019-04-26T23:48:33.178Z,6.28
2019-04-26T23:51:08.230Z,6.03
2019-04-26T23:53:37.405Z,6.95
2019-04-26T23:56:08.751Z,7.85
2019-04-26T23:58:44.167Z,7.40
